Flight Track Log - Related Links

Times and Time Zones

All times are in EDT time to prevent confusion due to time zone crossing. See the UAL582 flight status page for this flight to view local times or setup timezone preferences in your user account.

Time Position Orientation Groundspeed Altitude Reporting Facility
EDT Latitude Longitude Course Direction KTS MPH feet Rate Location/Type
Sun 09:35:33 PM 41.9333 -87.9000 189° South 154 177 2,200  Level Chicago TRACON
Sun 09:36:33 PM 41.9000 -87.9167 200° South 172 198 4,600 2,360 Climbing Chicago TRACON
Sun 09:37:02 PM 41.8725 -87.9092 169° South 173 199 5,700 2,835 Climbing Chicago Center
Sun 09:38:00 PM 41.6536 -87.7551 180° South  Level Estimated
Sun 09:38:04 PM 41.8067 -87.9053 177° South 228 262 8,900  Level Chicago Center
Sun 09:39:00 PM 41.5442 -87.7048 176° South  Level Estimated
Sun 09:39:05 PM 41.7381 -87.9006 177° South 245 282 11,900  Level Chicago Center
Sun 09:40:00 PM 41.4348 -87.6548 189° South  Level Estimated
Sun 09:40:07 PM 41.6614 -87.8933 176° South 269 310 14,300  Level Chicago Center
Sun 09:41:09 PM 41.5689 -87.8867 177° South 322 371 15,900 1,984 Climbing Chicago Center
Sun 09:42:11 PM 41.4642 -87.8806 177° South 362 417 18,400 2,293 Climbing Chicago Center
Sun 09:43:12 PM 41.3539 -87.8825 181° South 387 445 20,600 2,049 Climbing Chicago Center
Sun 09:44:14 PM 41.2411 -87.8922 184° South 401 461 22,600 2,032 Climbing Chicago Center
Sun 09:45:16 PM 41.1014 -87.8822 177° South 418 481 24,800 1,951 Climbing Chicago Center
Sun 09:46:17 PM 40.9825 -87.8500 168° South 436 502 26,600 1,561 Climbing Chicago Center
Sun 09:47:19 PM 40.8608 -87.8164 168° South 446 513 28,000 1,403 Climbing Chicago Center
Sun 09:48:21 PM 40.7344 -87.7833 169° South 462 532 29,500 1,902 Climbing Chicago Center
Sun 09:49:22 PM 40.6106 -87.7539 170° South 457 526 31,900 1,707 Climbing Chicago Center
Sun 09:50:24 PM 40.4897 -87.7233 169° South 448 516 33,000 537 Climbing Chicago Center
Sun 09:51:25 PM 40.3478 -87.6881 169° South 437 503 33,000  Level Chicago Center
Sun 09:52:27 PM 40.2286 -87.6569 169° South 438 504 33,000  Level Chicago Center
Sun 09:53:28 PM 40.1069 -87.6261 169° South 443 510 33,000  Level Chicago Center
Sun 09:54:30 PM 39.9861 -87.5947 169° South 444 511 33,000 244 Level Chicago Center
Sun 09:55:31 PM 39.8606 -87.5614 168° South 444 511 33,500 945 Climbing Chicago Center
Sun 09:56:37 PM 39.7306 -87.5317 170° South 444 511 35,000 945 Climbing Indianapolis Center
Sun 09:57:38 PM 39.6108 -87.5017 169° South 439 505 35,500 689 Climbing Indianapolis Center
Sun 09:58:39 PM 39.4878 -87.4717 169° South 446 513 36,400 738 Climbing Indianapolis Center
Sun 09:59:40 PM 39.3642 -87.4414 169° South 451 519 37,000 295 Climbing Indianapolis Center
Sun 10:00:41 PM 39.2442 -87.4111 169° South 439 505 37,000  Level Indianapolis Center
Sun 10:01:42 PM 39.1239 -87.3822 169° South 440 506 37,000  Level Indianapolis Center
Sun 10:02:43 PM 39.0028 -87.3525 169° South 441 507 37,000  Level Indianapolis Center
Sun 10:03:44 PM 38.8564 -87.3178 170° South 443 510 37,000  Level Indianapolis Center
Sun 10:04:45 PM 38.7353 -87.2872 169° South 442 509 37,000  Level Indianapolis Center
Sun 10:05:46 PM 38.6117 -87.2583 170° South 450 518 37,000  Level Indianapolis Center
Sun 10:06:47 PM 38.4894 -87.2289 169° South 447 514 37,000 -49 Level Indianapolis Center
Sun 10:07:48 PM 38.3725 -87.2019 170° South 447 514 36,900  Descending Indianapolis Center
Sun 10:08:49 PM 38.2417 -87.1722 170° South 447 514 37,000 49 Climbing Indianapolis Center
Sun 10:09:50 PM 38.1289 -87.1444 169° South 451 519 37,000  Level Indianapolis Center
Sun 10:10:51 PM 38.0078 -87.1158 169° South 442 509 37,000  Level Indianapolis Center
Sun 10:11:52 PM 37.8861 -87.0869 169° South 444 511 37,000  Level Indianapolis Center
Sun 10:12:53 PM 37.7650 -87.0592 170° South 441 507 37,000  Level Indianapolis Center
Sun 10:13:54 PM 37.6208 -87.0264 170° South 437 503 37,000  Level Indianapolis Center
Sun 10:14:32 PM 37.5450 -87.0092 170° South 446 513 37,000  Level Memphis Center
Sun 10:15:32 PM 37.4297 -86.9800 169° South 446 513 37,000  Level Memphis Center
Sun 10:16:32 PM 37.3122 -86.9539 170° South 435 501 37,000  Level Memphis Center
Sun 10:17:32 PM 37.1928 -86.9278 170° South 430 495 37,000  Level Memphis Center
Sun 10:18:32 PM 37.0775 -86.8989 169° South 430 495 37,000  Level Memphis Center
Sun 10:19:32 PM 36.9578 -86.8703 169° South 430 495 37,000  Level Memphis Center
Sun 10:20:32 PM 36.8531 -86.8489 171° South 430 495 37,000  Level Memphis Center
Sun 10:21:32 PM 36.7356 -86.8203 169° South 430 495 37,000  Level Memphis Center
Sun 10:22:32 PM 36.6181 -86.7919 169° South 430 495 37,000  Level Memphis Center
Sun 10:23:32 PM 36.4983 -86.7636 169° South 430 495 37,000  Level Memphis Center
Sun 10:24:32 PM 36.3642 -86.7308 169° South 443 510 37,000  Level Memphis Center
Sun 10:25:32 PM 36.2403 -86.7056 171° South 455 524 37,000  Level Memphis Center
Sun 10:26:32 PM 36.1206 -86.6750 168° South 440 506 37,000  Level Memphis Center
Sun 10:27:32 PM 36.0042 -86.6211 159° South 440 506 37,000  Level Memphis Center
Sun 10:30:39 PM 35.6447 -86.4436 158° South 465 535 37,000  Level Atlanta Center
Sun 10:31:39 PM 35.5331 -86.3892 158° South 446 513 37,000  Level Atlanta Center
Sun 10:32:39 PM 35.4153 -86.3297 158° South 446 513 37,000  Level Atlanta Center
Sun 10:33:39 PM 35.3017 -86.2756 159° South 446 513 37,000  Level Atlanta Center
Sun 10:35:39 PM 35.0781 -86.1681 159° South 440 506 37,000  Level Atlanta Center
Sun 10:36:39 PM 34.9578 -86.1244 163° South 440 506 37,000  Level Atlanta Center
Sun 10:37:39 PM 34.8461 -86.0686 158° South 440 506 37,000  Level Atlanta Center
Sun 10:38:39 PM 34.7300 -86.0203 161° South 440 506 37,000  Level Atlanta Center
Sun 10:39:39 PM 34.6161 -85.9722 161° South 440 506 37,000  Level Atlanta Center
Sun 10:40:39 PM 34.4978 -85.9242 161° South 446 513 37,000  Level Atlanta Center
Sun 10:41:39 PM 34.3817 -85.8761 161° South 446 513 37,000  Level Atlanta Center
Sun 10:42:39 PM 34.2633 -85.8283 162° South 446 513 37,000  Level Atlanta Center
Sun 10:43:39 PM 34.1472 -85.7883 164° South 434 499 37,000  Level Atlanta Center
Sun 10:44:39 PM 34.0331 -85.7383 160° South 434 499 37,000  Level Atlanta Center
Sun 10:45:39 PM 33.9147 -85.6933 162° South 440 506 37,000  Level Atlanta Center
Sun 10:46:39 PM 33.7964 -85.6436 161° South 440 506 37,000  Level Atlanta Center
Sun 10:47:39 PM 33.6906 -85.6017 162° South 440 506 37,000  Level Atlanta Center
Sun 10:48:39 PM 33.5761 -85.5572 162° South 433 498 37,000  Level Atlanta Center
Sun 10:49:39 PM 33.4600 -85.5106 161° South 438 504 37,000  Level Atlanta Center
Sun 10:50:39 PM 33.3436 -85.4611 160° South 438 504 37,000  Level Atlanta Center
Sun 10:51:39 PM 33.2292 -85.4172 162° South 443 510 37,000  Level Atlanta Center
Sun 10:53:00 PM 33.1166 -85.2921 137° Southeast  Level FlightAware Approximate
Sun 10:53:39 PM 32.9861 -85.3142 137° Southeast 438 504 37,000  Level Atlanta Center
Sun 10:54:39 PM 32.8678 -85.2656 161° South 444 511 37,000  Level Atlanta Center
Sun 10:55:39 PM 32.7533 -85.2194 161° South 437 503 37,000  Level Atlanta Center
Sun 10:56:39 PM 32.6389 -85.1761 162° South 441 507 37,000  Level Atlanta Center
Sun 10:57:39 PM 32.5203 -85.1278 161° South 441 507 37,000  Level Atlanta Center
Sun 10:58:39 PM 32.4081 -85.0819 161° South 441 507 37,000  Level Atlanta Center
Sun 11:00:19 PM 32.2197 -85.0119 163° South 440 506 37,000  Level Jacksonville Center
Sun 11:01:19 PM 32.1036 -84.9675 162° South 440 506 37,000  Level Jacksonville Center
Sun 11:02:19 PM 31.9917 -84.9208 161° South 440 506 37,000  Level Jacksonville Center
Sun 11:03:19 PM 31.8650 -84.8764 163° South 434 499 37,000  Level Jacksonville Center
Sun 11:04:19 PM 31.7508 -84.8325 162° South 434 499 37,000  Level Jacksonville Center
Sun 11:05:19 PM 31.6389 -84.7886 162° South 434 499 37,000  Level Jacksonville Center
Sun 11:06:19 PM 31.5244 -84.7450 162° South 434 499 37,000  Level Jacksonville Center
Sun 11:07:19 PM 31.4083 -84.7011 162° South 434 499 37,000  Level Jacksonville Center
Sun 11:08:19 PM 31.2942 -84.6553 161° South 439 505 37,000  Level Jacksonville Center
Sun 11:09:19 PM 31.1778 -84.6094 161° South 439 505 37,000  Level Jacksonville Center
Sun 11:10:19 PM 31.0614 -84.5683 163° South 439 505 37,000  Level Jacksonville Center
Sun 11:11:19 PM 30.9450 -84.5228 161° South 439 505 37,000  Level Jacksonville Center
Sun 11:12:19 PM 30.8267 -84.4772 162° South 439 505 37,000  Level Jacksonville Center
Sun 11:13:19 PM 30.7103 -84.4342 162° South 439 505 37,000  Level Jacksonville Center
Sun 11:14:19 PM 30.5917 -84.3889 162° South 439 505 37,000  Level Jacksonville Center
Sun 11:15:19 PM 30.4756 -84.3219 154° Southeast 444 511 37,000  Level Jacksonville Center
Sun 11:16:19 PM 30.3636 -84.2503 151° Southeast 457 526 37,000 -50 Level Jacksonville Center
Sun 11:17:19 PM 30.2497 -84.1767 151° Southeast 462 532 36,900  Descending Jacksonville Center
Sun 11:18:19 PM 30.1397 -84.1031 150° Southeast 462 532 37,000 50 Climbing Jacksonville Center
Sun 11:19:19 PM 30.0214 -84.0272 151° Southeast 467 537 37,000 -50 Level Jacksonville Center
Sun 11:20:19 PM 29.9092 -83.9542 151° Southeast 467 537 36,900  Descending Jacksonville Center
Sun 11:21:19 PM 29.7950 -83.8786 150° Southeast 467 537 37,000 -150 Climbing Jacksonville Center
Sun 11:22:19 PM 29.6808 -83.8081 152° Southeast 467 537 36,600 -1,150 Descending Jacksonville Center
Sun 11:23:19 PM 29.5664 -83.7331 150° Southeast 467 537 34,700 -2,300 Descending Jacksonville Center
Sun 11:24:19 PM 29.4542 -83.6606 151° Southeast 467 537 32,000 -2,850 Descending Jacksonville Center
Sun 11:25:19 PM 29.3439 -83.5906 151° Southeast 467 537 29,000 -2,500 Descending Jacksonville Center
Sun 11:26:19 PM 29.2294 -83.5183 151° Southeast 467 537 27,000 -1,000 Descending Jacksonville Center
Sun 11:27:19 PM 29.1192 -83.4489 151° Southeast 462 532 27,000 -50 Level Jacksonville Center
Sun 11:28:19 PM 29.0108 -83.3792 151° Southeast 452 520 26,900 -1,000 Descending Jacksonville Center
Sun 11:29:19 PM 28.9047 -83.3100 150° Southeast 452 520 25,000 -2,550 Descending Jacksonville Center
Sun 11:30:19 PM 28.7964 -83.2408 151° Southeast 452 520 21,800 -3,000 Descending Jacksonville Center
Sun 11:31:19 PM 28.6964 -83.1767 151° Southeast 440 506 19,000 -2,641 Descending Jacksonville Center
Sun 11:33:23 PM 28.5000 -83.0500 150° Southeast 373 429 13,700 -2,258 Descending Tampa TRACON
Sun 11:34:17 PM 28.4333 -83.0000 147° Southeast 355 409 12,300 -1,500 Descending Tampa TRACON
Sun 11:35:11 PM 28.3667 -82.9333 139° Southeast 331 381 11,000 -1,105 Descending Tampa TRACON
Sun 11:36:11 PM 28.3000 -82.8667 139° Southeast 317 365 10,200 -905 Descending Tampa TRACON
Sun 11:37:17 PM 28.2333 -82.8167 147° Southeast 282 325 9,100 -1,200 Descending Tampa TRACON
Sun 11:38:11 PM 28.1667 -82.7667 147° Southeast 278 320 7,800 -1,350 Descending Tampa TRACON
Sun 11:39:17 PM 28.1167 -82.7000 130° Southeast 272 313 6,400 -1,438 Descending Tampa TRACON
Sun 11:40:12 PM 28.0500 -82.6833 168° South 261 300 4,900 -1,513 Descending Tampa TRACON
Sun 11:41:12 PM 27.9833 -82.6667 168° South 257 296 3,500 -950 Descending Tampa TRACON
Sun 11:42:12 PM 27.9167 -82.6500 168° South 242 278 3,000 -684 Descending Tampa TRACON
Sun 11:43:06 PM 27.8500 -82.6500 180° South 236 272 2,200 -684 Descending Tampa TRACON
Sun 11:44:06 PM 27.8167 -82.6000 127° Southeast 223 257 1,700 -500 Descending Tampa TRACON

Login

Don't have an account? Register now (free) for customized features, flight alerts, and more!